createdAt,value
2022-09-12T00:02:07.843Z,67.51
2022-09-12T00:04:38.382Z,67.20
2022-09-12T00:07:15.875Z,67.66
2022-09-12T00:09:44.776Z,67.45
2022-09-12T00:12:13.850Z,67.30
2022-09-12T00:14:43.009Z,67.92
2022-09-12T00:17:11.024Z,67.75
2022-09-12T00:19:38.694Z,67.21
2022-09-12T00:22:07.906Z,67.38
2022-09-12T00:24:35.532Z,67.32
2022-09-12T00:27:03.262Z,67.32
2022-09-12T00:29:31.233Z,67.19
2022-09-12T00:31:59.057Z,66.78
2022-09-12T00:34:27.649Z,66.95
2022-09-12T00:36:57.537Z,67.63
2022-09-12T00:39:29.736Z,67.86
2022-09-12T00:41:59.251Z,67.55
2022-09-12T00:44:49.609Z,68.08
2022-09-12T00:47:22.369Z,67.67
2022-09-12T00:49:56.798Z,67.78
2022-09-12T00:52:30.991Z,67.75
2022-09-12T00:55:08.022Z,67.96
2022-09-12T00:57:42.710Z,68.42
2022-09-12T01:00:16.480Z,67.83
2022-09-12T01:02:47.129Z,68.03
2022-09-12T01:05:15.895Z,67.67
2022-09-12T01:07:49.040Z,67.71
2022-09-12T01:10:21.032Z,67.69
2022-09-12T01:12:50.231Z,67.86
2022-09-12T01:15:21.532Z,67.54
2022-09-12T01:18:05.745Z,68.14
2022-09-12T01:21:04.005Z,67.94
2022-09-12T01:24:04.641Z,68.79
2022-09-12T01:26:57.403Z,68.42
2022-09-12T01:29:49.707Z,68.50
2022-09-12T01:32:25.417Z,68.85
2022-09-12T01:35:00.426Z,68.28
2022-09-12T01:37:37.308Z,68.38
2022-09-12T01:40:17.281Z,68.65
2022-09-12T01:42:54.037Z,68.49
2022-09-12T01:45:27.795Z,68.64
2022-09-12T01:48:03.816Z,68.47
2022-09-12T01:50:36.256Z,68.46
2022-09-12T01:53:10.915Z,68.48
2022-09-12T01:55:44.863Z,67.86
2022-09-12T01:58:18.607Z,67.96
2022-09-12T02:00:52.475Z,67.66
2022-09-12T02:03:29.827Z,67.92
2022-09-12T02:06:04.428Z,68.27
2022-09-12T02:08:37.985Z,68.03
2022-09-12T02:11:10.015Z,67.84
2022-09-12T02:13:44.703Z,67.66
2022-09-12T02:16:20.283Z,67.52
2022-09-12T02:18:55.789Z,67.37
2022-09-12T02:21:25.943Z,68.01
2022-09-12T02:24:00.484Z,67.87
2022-09-12T02:26:39.559Z,68.15
2022-09-12T02:29:08.040Z,67.87
2022-09-12T02:31:45.765Z,68.57
2022-09-12T02:34:29.360Z,68.23
2022-09-12T02:37:08.020Z,68.16
2022-09-12T02:39:37.336Z,68.19
2022-09-12T02:42:06.490Z,67.49
2022-09-12T02:44:37.277Z,67.75
2022-09-12T02:47:10.416Z,67.14
2022-09-12T02:49:40.744Z,67.36
2022-09-12T02:52:10.672Z,67.79
2022-09-12T02:54:39.571Z,68.85
2022-09-12T02:57:22.437Z,67.96
2022-09-12T02:59:54.286Z,68.07
2022-09-12T03:02:32.039Z,68.25
2022-09-12T03:05:27.001Z,68.28
2022-09-12T03:08:13.485Z,67.87
2022-09-12T03:10:53.298Z,67.50
2022-09-12T03:13:26.683Z,68.27
2022-09-12T03:16:05.399Z,67.95
2022-09-12T03:18:47.452Z,67.51
2022-09-12T03:21:27.184Z,67.72
2022-09-12T03:24:06.076Z,67.33
2022-09-12T03:26:39.403Z,67.72
2022-09-12T03:29:08.834Z,67.24
2022-09-12T03:31:36.442Z,67.47
2022-09-12T03:34:04.371Z,67.26
2022-09-12T03:36:33.354Z,66.85
2022-09-12T03:39:01.221Z,67.20
2022-09-12T03:41:28.978Z,66.94
2022-09-12T03:43:57.037Z,67.00
2022-09-12T03:46:24.809Z,66.78
2022-09-12T03:48:52.759Z,67.10
2022-09-12T03:51:21.128Z,66.95
2022-09-12T03:53:50.499Z,66.91
2022-09-12T03:56:19.393Z,66.89
2022-09-12T03:58:47.942Z,67.26
2022-09-12T04:01:18.241Z,67.08
2022-09-12T04:03:47.890Z,67.06
2022-09-12T04:06:18.066Z,66.97
2022-09-12T04:08:48.864Z,67.23
2022-09-12T04:11:19.212Z,66.81
2022-09-12T04:13:47.691Z,67.01
2022-09-12T04:16:17.671Z,67.35
2022-09-12T04:18:46.514Z,67.15
2022-09-12T04:21:16.991Z,68.08
2022-09-12T04:23:45.062Z,67.93
2022-09-12T04:26:13.820Z,68.73
2022-09-12T04:28:43.412Z,68.21
2022-09-12T04:31:15.620Z,68.03
2022-09-12T04:33:43.606Z,67.99
2022-09-12T04:36:14.374Z,67.71
2022-09-12T04:38:42.397Z,67.53
2022-09-12T04:41:14.527Z,67.75
2022-09-12T04:43:46.489Z,67.47
2022-09-12T04:46:16.579Z,67.86
2022-09-12T04:48:44.839Z,67.60
2022-09-12T04:51:15.164Z,67.41
2022-09-12T04:53:43.774Z,67.32
2022-09-12T04:56:12.904Z,67.29
2022-09-12T04:58:40.498Z,67.48
2022-09-12T05:01:12.156Z,67.87
2022-09-12T05:03:43.415Z,67.48
2022-09-12T05:06:13.776Z,67.51
2022-09-12T05:08:42.021Z,67.58
2022-09-12T05:11:13.214Z,67.70
2022-09-12T05:13:41.669Z,68.14
2022-09-12T05:16:12.571Z,68.30
2022-09-12T05:18:40.685Z,67.59
2022-09-12T05:21:10.549Z,68.30
2022-09-12T05:23:38.418Z,68.40
2022-09-12T05:26:08.435Z,67.67
2022-09-12T05:28:39.610Z,67.64
2022-09-12T05:31:09.393Z,67.71
2022-09-12T05:33:39.558Z,67.36
2022-09-12T05:36:11.231Z,67.60
2022-09-12T05:38:39.230Z,68.32
2022-09-12T05:41:12.408Z,67.39
2022-09-12T05:43:45.184Z,67.36
2022-09-12T05:46:15.383Z,67.36
2022-09-12T05:48:46.952Z,67.87
2022-09-12T05:51:19.344Z,68.27
2022-09-12T05:53:48.278Z,68.23
2022-09-12T05:56:18.090Z,68.07
2022-09-12T05:58:50.701Z,68.30
2022-09-12T06:01:20.095Z,67.89
2022-09-12T06:03:51.610Z,68.75
2022-09-12T06:06:24.408Z,67.87
2022-09-12T06:08:53.685Z,67.44
2022-09-12T06:11:23.142Z,68.16
2022-09-12T06:13:51.509Z,68.20
2022-09-12T06:16:23.096Z,68.69
2022-09-12T06:18:54.258Z,68.00
2022-09-12T06:21:22.906Z,68.38
2022-09-12T06:23:51.142Z,68.50
2022-09-12T06:26:21.695Z,66.85
2022-09-12T06:28:49.538Z,67.09
2022-09-12T06:31:19.359Z,66.71
2022-09-12T06:33:49.225Z,66.36
2022-09-12T06:36:22.461Z,65.93
2022-09-12T06:38:55.055Z,65.42
2022-09-12T06:41:23.013Z,65.52
2022-09-12T06:43:50.966Z,65.13
2022-09-12T06:46:18.992Z,64.69
2022-09-12T06:48:48.431Z,64.07
2022-09-12T06:51:20.148Z,63.50
2022-09-12T06:53:48.798Z,62.85
2022-09-12T06:56:18.945Z,62.35
2022-09-12T06:58:48.036Z,61.04
2022-09-12T07:01:17.777Z,59.64
2022-09-12T07:03:49.641Z,57.59
2022-09-12T07:06:20.169Z,56.74
2022-09-12T07:08:48.557Z,56.35
2022-09-12T07:11:18.582Z,54.15
2022-09-12T07:13:48.306Z,54.33
2022-09-12T07:16:19.617Z,52.84
2022-09-12T07:18:51.836Z,52.19
2022-09-12T07:21:21.777Z,51.99
2022-09-12T07:23:51.787Z,53.09
2022-09-12T07:26:19.606Z,51.73
2022-09-12T07:28:52.072Z,50.74
2022-09-12T07:31:22.814Z,51.06
2022-09-12T07:33:54.634Z,49.37
2022-09-12T07:36:25.735Z,48.97
2022-09-12T07:38:57.829Z,47.46
2022-09-12T07:41:28.492Z,46.34
2022-09-12T07:43:58.119Z,46.74
2022-09-12T07:46:27.094Z,46.01
2022-09-12T07:48:55.965Z,46.76
2022-09-12T07:51:26.033Z,45.17
2022-09-12T07:53:54.129Z,46.21
2022-09-12T07:56:26.102Z,44.21
2022-09-12T07:58:56.921Z,46.43
2022-09-12T08:01:25.446Z,48.92
2022-09-12T08:03:56.952Z,50.12
2022-09-12T08:06:27.520Z,51.00
2022-09-12T08:08:57.160Z,52.99
2022-09-12T08:11:26.477Z,52.85
2022-09-12T08:13:56.278Z,53.58
2022-09-12T08:16:28.006Z,53.16
2022-09-12T08:18:55.920Z,53.78
2022-09-12T08:21:27.009Z,54.95
2022-09-12T08:23:56.473Z,54.94
2022-09-12T08:26:25.143Z,54.76
2022-09-12T08:28:53.259Z,55.03
2022-09-12T08:31:24.089Z,55.98
2022-09-12T08:33:53.552Z,54.24
2022-09-12T08:36:23.443Z,54.32
2022-09-12T08:38:59.574Z,53.77
2022-09-12T08:41:32.034Z,54.27
2022-09-12T08:44:27.370Z,53.17
2022-09-12T08:47:19.018Z,51.83
2022-09-12T08:49:55.040Z,49.88
2022-09-12T08:52:29.052Z,48.25
2022-09-12T08:54:58.562Z,46.83
2022-09-12T08:57:26.734Z,45.46
2022-09-12T08:59:54.790Z,43.11
2022-09-12T09:02:46.701Z,42.83
2022-09-12T09:05:24.336Z,39.29
2022-09-12T09:08:12.202Z,39.57
2022-09-12T09:10:53.153Z,39.77
2022-09-12T09:13:52.045Z,41.28
2022-09-12T09:16:27.329Z,40.48
2022-09-12T09:18:57.111Z,39.48
2022-09-12T09:21:30.621Z,39.14
2022-09-12T09:24:05.145Z,39.45
2022-09-12T09:26:43.461Z,40.34
2022-09-12T09:29:18.618Z,38.92
2022-09-12T09:31:50.096Z,37.99
2022-09-12T09:34:24.452Z,39.42
2022-09-12T09:36:58.464Z,40.00
2022-09-12T09:39:53.878Z,39.77
2022-09-12T09:42:34.645Z,41.35
2022-09-12T09:45:18.545Z,43.09
2022-09-12T09:47:55.569Z,40.92
2022-09-12T09:50:24.516Z,40.20
2022-09-12T09:52:54.115Z,40.30
2022-09-12T09:55:26.889Z,39.13
2022-09-12T09:58:07.464Z,37.99
2022-09-12T10:00:44.440Z,38.53
2022-09-12T10:03:29.834Z,37.93
2022-09-12T10:06:01.445Z,38.77
2022-09-12T10:08:31.509Z,39.10
2022-09-12T10:11:02.950Z,38.78
2022-09-12T10:13:54.635Z,38.83
2022-09-12T10:16:30.830Z,39.55
2022-09-12T10:19:00.135Z,39.77
2022-09-12T10:21:33.401Z,40.02
2022-09-12T10:24:07.389Z,39.96
2022-09-12T10:26:41.033Z,40.61
2022-09-12T10:29:18.186Z,42.01
2022-09-12T10:31:50.875Z,41.72
2022-09-12T10:34:29.232Z,41.57
2022-09-12T10:37:02.838Z,42.80
2022-09-12T10:39:31.216Z,42.78
2022-09-12T10:41:59.550Z,43.76
2022-09-12T10:44:30.907Z,42.14
2022-09-12T10:47:00.344Z,39.87
2022-09-12T10:49:31.489Z,39.96
2022-09-12T10:52:18.220Z,38.50
2022-09-12T10:54:46.407Z,38.61
2022-09-12T10:57:47.605Z,38.06
2022-09-12T11:00:30.345Z,38.45
2022-09-12T11:03:06.374Z,36.29
2022-09-12T11:05:52.358Z,35.40
2022-09-12T11:08:39.359Z,36.48
2022-09-12T11:11:14.238Z,36.77
2022-09-12T11:13:56.582Z,34.06
2022-09-12T11:16:32.183Z,33.59
2022-09-12T11:19:18.074Z,34.49
2022-09-12T11:22:02.665Z,34.71
2022-09-12T11:24:46.475Z,33.42
2022-09-12T11:27:32.002Z,35.46
2022-09-12T11:30:02.585Z,37.17
2022-09-12T11:32:49.341Z,37.53
2022-09-12T11:35:25.753Z,38.26
2022-09-12T11:38:19.471Z,40.11
2022-09-12T11:40:52.338Z,39.13
2022-09-12T11:43:31.405Z,39.49
2022-09-12T11:46:05.313Z,40.29
2022-09-12T11:48:46.129Z,40.13
2022-09-12T11:51:20.041Z,40.33
2022-09-12T11:54:00.705Z,40.77
2022-09-12T11:56:28.483Z,41.21
2022-09-12T11:59:02.233Z,41.18
2022-09-12T12:01:41.291Z,41.63
2022-09-12T12:04:16.475Z,42.21
2022-09-12T12:06:52.380Z,41.12
2022-09-12T12:09:20.693Z,41.51
2022-09-12T12:11:54.342Z,41.34
2022-09-12T12:14:25.663Z,40.50
2022-09-12T12:16:53.852Z,40.35
2022-09-12T12:19:34.941Z,40.02
2022-09-12T12:22:25.419Z,39.33
2022-09-12T12:25:07.910Z,40.51
2022-09-12T12:27:51.974Z,40.25
2022-09-12T12:31:05.734Z,41.16
2022-09-12T12:34:06.799Z,40.27
2022-09-12T12:36:41.845Z,39.98
2022-09-12T12:39:48.095Z,39.19
2022-09-12T12:43:04.645Z,39.76
2022-09-12T12:46:14.908Z,39.04
2022-09-12T12:49:11.491Z,38.99
2022-09-12T12:51:51.151Z,38.89
2022-09-12T12:54:57.693Z,40.01
2022-09-12T12:57:33.935Z,39.09
2022-09-12T13:00:04.677Z,39.33
2022-09-12T13:02:39.055Z,38.49
2022-09-12T13:05:17.534Z,40.09
2022-09-12T13:07:48.075Z,40.05
2022-09-12T13:10:24.302Z,39.25
2022-09-12T13:12:53.100Z,40.85
2022-09-12T13:15:49.196Z,40.42
2022-09-12T13:18:23.231Z,41.06
2022-09-12T13:20:56.548Z,40.93
2022-09-12T13:23:28.100Z,40.99
2022-09-12T13:25:56.722Z,41.00
2022-09-12T13:28:26.398Z,42.03
2022-09-12T13:31:02.028Z,39.17
2022-09-12T13:33:41.383Z,40.01
2022-09-12T13:36:26.907Z,39.80
2022-09-12T13:39:11.730Z,41.50
2022-09-12T13:41:58.743Z,41.13
2022-09-12T13:44:27.986Z,41.51
2022-09-12T13:47:00.152Z,41.31
2022-09-12T13:49:33.288Z,41.12
2022-09-12T13:52:04.297Z,41.13
2022-09-12T13:54:35.108Z,41.11
2022-09-12T13:57:03.139Z,40.30
2022-09-12T13:59:39.814Z,40.27
2022-09-12T14:02:19.913Z,40.98
2022-09-12T14:05:03.093Z,40.64
2022-09-12T14:07:32.964Z,40.83
2022-09-12T14:10:04.867Z,41.68
2022-09-12T14:12:37.535Z,40.99
2022-09-12T14:15:12.640Z,41.64
2022-09-12T14:17:41.785Z,41.40
2022-09-12T14:20:16.252Z,41.64
2022-09-12T14:22:46.416Z,41.79
2022-09-12T14:25:20.965Z,42.12
2022-09-12T14:27:53.940Z,42.41
2022-09-12T14:30:25.089Z,42.03
2022-09-12T14:33:18.146Z,41.88
2022-09-12T14:35:48.379Z,42.41
2022-09-12T14:39:15.857Z,42.01
2022-09-12T14:41:46.271Z,41.35
2022-09-12T14:44:24.772Z,41.78
2022-09-12T14:47:37.158Z,41.31
2022-09-12T14:50:09.405Z,42.57
2022-09-12T14:52:40.163Z,42.88
2022-09-12T14:55:25.029Z,43.12
2022-09-12T15:00:58.666Z,43.22
2022-09-12T15:03:29.908Z,43.06
2022-09-12T15:05:58.720Z,43.12
2022-09-12T15:08:27.210Z,43.54
2022-09-12T15:10:55.081Z,43.49
2022-09-12T15:13:25.941Z,43.46
2022-09-12T15:15:55.871Z,43.59
2022-09-12T15:18:26.784Z,43.65
2022-09-12T15:20:57.630Z,42.88
2022-09-12T15:23:40.175Z,43.64
2022-09-12T15:26:08.597Z,43.59
2022-09-12T15:28:36.272Z,43.80
2022-09-12T15:31:11.440Z,44.10
2022-09-12T15:33:40.559Z,44.46
2022-09-12T15:36:16.507Z,44.26
2022-09-12T15:38:45.346Z,44.09
2022-09-12T15:41:15.980Z,44.27
2022-09-12T15:43:44.336Z,44.69
2022-09-12T15:46:13.748Z,44.74
2022-09-12T15:48:43.484Z,44.76
2022-09-12T15:51:15.460Z,44.87
2022-09-12T15:53:44.655Z,44.75
2022-09-12T15:56:12.806Z,44.64
2022-09-12T15:58:50.023Z,44.96
2022-09-12T16:01:25.364Z,44.80
2022-09-12T16:03:54.389Z,44.85
2022-09-12T16:06:22.203Z,45.17
2022-09-12T16:08:50.282Z,45.25
2022-09-12T16:11:20.942Z,45.22
2022-09-12T16:13:48.679Z,45.17
2022-09-12T16:16:16.423Z,45.08
2022-09-12T16:18:44.366Z,45.42
2022-09-12T16:21:15.430Z,45.82
2022-09-12T16:23:43.941Z,46.47
2022-09-12T16:26:11.722Z,46.76
2022-09-12T16:28:40.032Z,46.38
2022-09-12T16:31:09.543Z,46.90
2022-09-12T16:33:39.295Z,46.87
2022-09-12T16:36:09.235Z,47.26
2022-09-12T16:38:43.848Z,47.25
2022-09-12T16:41:12.335Z,47.06
2022-09-12T16:43:40.526Z,47.47
2022-09-12T16:46:10.366Z,47.50
2022-09-12T16:48:42.541Z,47.72
2022-09-12T16:51:10.274Z,47.91
2022-09-12T16:53:39.336Z,48.15
2022-09-12T16:56:10.001Z,48.28
2022-09-12T16:58:48.230Z,48.25
2022-09-12T17:01:18.322Z,48.11
2022-09-12T17:03:46.637Z,48.38
2022-09-12T17:06:16.562Z,48.67
2022-09-12T17:08:46.583Z,48.71
2022-09-12T17:11:17.633Z,49.00
2022-09-12T17:14:04.009Z,49.39
2022-09-12T17:16:33.511Z,49.48
2022-09-12T17:19:01.434Z,49.77
2022-09-12T17:21:30.449Z,49.94
2022-09-12T17:23:59.196Z,50.16
2022-09-12T17:26:29.431Z,50.59
2022-09-12T17:28:57.134Z,50.53
2022-09-12T17:31:24.973Z,50.71
2022-09-12T17:33:57.227Z,50.72
2022-09-12T17:36:25.373Z,51.00
2022-09-12T17:38:54.294Z,51.48
2022-09-12T17:41:23.649Z,51.22
2022-09-12T17:43:55.678Z,51.82
2022-09-12T17:46:25.102Z,52.07
2022-09-12T17:48:53.829Z,52.31
2022-09-12T17:51:24.799Z,52.11
2022-09-12T17:53:59.246Z,52.72
2022-09-12T17:56:28.041Z,52.81
2022-09-12T17:58:57.834Z,52.63
2022-09-12T18:01:44.348Z,53.10
2022-09-12T18:04:12.233Z,52.89
2022-09-12T18:06:40.902Z,53.26
2022-09-12T18:09:10.779Z,53.21
2022-09-12T18:11:53.821Z,53.80
2022-09-12T18:14:56.294Z,53.90
2022-09-12T18:17:56.657Z,54.04
2022-09-12T18:20:40.206Z,54.40
2022-09-12T18:23:44.114Z,54.29
2022-09-12T18:30:24.694Z,54.54
2022-09-12T18:32:58.500Z,54.74
2022-09-12T18:35:37.630Z,55.25
2022-09-12T18:38:41.336Z,55.27
2022-09-12T18:41:29.037Z,55.02
2022-09-12T18:44:09.025Z,55.17
2022-09-12T18:46:42.931Z,55.68
2022-09-12T18:49:14.479Z,55.99
2022-09-12T18:51:56.861Z,55.60
2022-09-12T18:54:30.256Z,55.57
2022-09-12T18:57:02.170Z,56.15
2022-09-12T18:59:36.445Z,56.84
2022-09-12T19:02:14.582Z,56.14
2022-09-12T19:04:47.452Z,56.32
2022-09-12T19:07:26.683Z,56.82
2022-09-12T19:10:01.569Z,56.74
2022-09-12T19:12:30.913Z,56.35
2022-09-12T19:15:04.209Z,56.33
2022-09-12T19:17:38.297Z,56.35
2022-09-12T19:20:17.545Z,56.46
2022-09-12T19:22:47.564Z,56.22
2022-09-12T19:25:17.485Z,56.30
2022-09-12T19:27:47.606Z,55.00
2022-09-12T19:30:17.869Z,55.74
2022-09-12T19:32:54.937Z,56.24
2022-09-12T19:35:27.284Z,55.96
2022-09-12T19:38:01.087Z,56.05
2022-09-12T19:40:46.666Z,56.23
2022-09-12T19:43:16.569Z,56.32
2022-09-12T19:45:55.031Z,56.17
2022-09-12T19:48:34.740Z,56.56
2022-09-12T19:54:01.501Z,56.78
2022-09-12T19:56:43.500Z,57.42
2022-09-12T19:59:21.622Z,57.29
2022-09-12T20:02:00.924Z,57.46
2022-09-12T20:04:34.460Z,58.00
2022-09-12T20:07:20.531Z,58.26
2022-09-12T20:10:04.885Z,58.20
2022-09-12T20:13:16.576Z,58.09
2022-09-12T20:16:22.810Z,58.83
2022-09-12T20:19:11.983Z,58.32
2022-09-12T20:21:41.640Z,58.25
2022-09-12T20:24:12.419Z,57.36
2022-09-12T20:26:40.845Z,57.23
2022-09-12T20:29:10.270Z,57.16
2022-09-12T20:31:43.345Z,58.71
2022-09-12T20:34:16.731Z,58.36
2022-09-12T20:36:49.805Z,58.25
2022-09-12T20:39:21.053Z,57.80
2022-09-12T20:41:53.431Z,57.51
2022-09-12T20:44:21.828Z,57.53
2022-09-12T20:46:49.739Z,58.08
2022-09-12T20:49:18.516Z,59.25
2022-09-12T20:51:48.510Z,58.56
2022-09-12T20:54:16.553Z,57.96
2022-09-12T20:56:45.157Z,60.11
2022-09-12T20:59:13.354Z,59.97
2022-09-12T21:01:41.397Z,59.31
2022-09-12T21:04:13.069Z,60.04
2022-09-12T21:06:42.849Z,59.72
2022-09-12T21:09:14.541Z,59.67
2022-09-12T21:11:42.514Z,58.76
2022-09-12T21:14:12.619Z,59.41
2022-09-12T21:16:40.409Z,58.80
2022-09-12T21:19:08.236Z,60.24
2022-09-12T21:21:36.019Z,60.46
2022-09-12T21:24:04.658Z,60.61
2022-09-12T21:26:35.163Z,60.12
2022-09-12T21:29:04.932Z,60.10
2022-09-12T21:31:33.408Z,59.63
2022-09-12T21:34:01.413Z,60.30
2022-09-12T21:36:29.535Z,59.73
2022-09-12T21:38:59.290Z,60.30
2022-09-12T21:41:28.722Z,59.96
2022-09-12T21:43:57.880Z,60.63
2022-09-12T21:46:25.814Z,61.46
2022-09-12T21:48:53.508Z,59.76
2022-09-12T21:51:21.525Z,60.05
2022-09-12T21:53:50.337Z,61.65
2022-09-12T21:56:21.201Z,61.10
2022-09-12T21:58:48.878Z,61.35
2022-09-12T22:01:18.194Z,61.88
2022-09-12T22:03:46.277Z,60.70
2022-09-12T22:06:18.576Z,60.91
2022-09-12T22:08:48.541Z,61.76
2022-09-12T22:11:19.399Z,60.71
2022-09-12T22:13:47.029Z,61.22
2022-09-12T22:16:15.388Z,61.18
2022-09-12T22:18:47.101Z,61.24
2022-09-12T22:21:17.190Z,60.99
2022-09-12T22:24:03.135Z,60.83
2022-09-12T22:26:35.076Z,60.95
2022-09-12T22:29:03.293Z,60.81
2022-09-12T22:31:31.149Z,60.80
2022-09-12T22:34:00.732Z,60.71
2022-09-12T22:36:31.252Z,60.71
2022-09-12T22:39:00.374Z,61.25
2022-09-12T22:41:28.591Z,60.33
2022-09-12T22:43:57.230Z,60.71
2022-09-12T22:46:25.232Z,62.22
2022-09-12T22:48:52.947Z,60.69
2022-09-12T22:51:23.268Z,61.76
2022-09-12T22:53:51.605Z,60.83
2022-09-12T22:56:19.826Z,61.75
2022-09-12T22:58:47.772Z,61.56
2022-09-12T23:01:15.994Z,62.27
2022-09-12T23:03:44.162Z,61.76
2022-09-12T23:06:12.384Z,62.33
2022-09-12T23:08:41.510Z,62.25
2022-09-12T23:11:11.518Z,62.97
2022-09-12T23:13:40.311Z,62.87
2022-09-12T23:16:09.439Z,62.06
2022-09-12T23:18:37.487Z,62.60
2022-09-12T23:21:07.902Z,62.80
2022-09-12T23:23:36.434Z,64.94
2022-09-12T23:26:07.892Z,64.44
2022-09-12T23:28:36.469Z,63.17
2022-09-12T23:31:04.772Z,63.64
2022-09-12T23:33:33.352Z,63.68
2022-09-12T23:36:02.269Z,62.96
2022-09-12T23:38:30.933Z,63.24
2022-09-12T23:40:59.661Z,65.11
2022-09-12T23:43:29.307Z,63.51
2022-09-12T23:45:57.338Z,64.34
2022-09-12T23:48:25.223Z,63.31
2022-09-12T23:50:53.226Z,65.95
2022-09-12T23:53:22.214Z,64.05
2022-09-12T23:55:50.464Z,64.98
2022-09-12T23:58:18.567Z,64.26
